X  Luk Metar data     EHRD Rotterdam The Hague Airport
Temperatur
11°C Temperatur
9°C Duggpunkt
88% Fugtighed



Vind
45 KM/T
28 MPT
13 M/S
24 KNOB



310°
NV
Nuværende forhold

Let  Regn Let Regn
Tryk 987.92 (hPa) - 29.17 (inHg)
Sigt 6.2 (mil) - 10 (km)
Lufthavn
Lufthavnskode EHRD

Lokation: Rotterdam The Hague Airport
Afstand: 16 (km)

Metar:
EHRD 210455Z AUTO 31024G39KT 270V360 9999 -RA SCT015CB SCT034 BKN045 11/09 Q0988 TEMPO 5000

Tid: 21-10-2021 06:55 CEST